createdAt,value
2017-11-30T00:02:02.799Z,21.03
2017-11-30T00:04:31.035Z,21.93
2017-11-30T00:06:58.506Z,19.52
2017-11-30T00:09:26.076Z,21.00
2017-11-30T00:11:53.549Z,20.00
2017-11-30T00:14:21.093Z,21.73
2017-11-30T00:16:48.575Z,21.40
2017-11-30T00:19:16.794Z,20.10
2017-11-30T00:21:44.297Z,22.00
2017-11-30T00:24:11.767Z,21.63
2017-11-30T00:26:40.041Z,21.57
2017-11-30T00:29:08.286Z,20.27
2017-11-30T00:31:35.771Z,21.23
2017-11-30T00:34:04.015Z,21.37
2017-11-30T00:36:31.482Z,21.77
2017-11-30T00:38:58.971Z,19.80
2017-11-30T00:41:27.398Z,20.77
2017-11-30T00:43:55.043Z,20.93
2017-11-30T00:46:22.507Z,21.80
2017-11-30T00:48:49.982Z,20.47
2017-11-30T00:51:17.444Z,19.67
2017-11-30T00:53:44.922Z,20.77
2017-11-30T00:56:12.423Z,18.63
2017-11-30T00:58:39.911Z,22.50
2017-11-30T01:01:07.436Z,14.50
2017-11-30T01:03:34.895Z,19.37
2017-11-30T01:06:02.432Z,21.07
2017-11-30T01:08:29.895Z,17.70
2017-11-30T01:10:58.148Z,20.03
2017-11-30T01:13:25.684Z,19.60
2017-11-30T01:15:53.159Z,18.70
2017-11-30T01:18:20.655Z,18.10
2017-11-30T01:20:48.924Z,20.73
2017-11-30T01:23:17.187Z,19.97
2017-11-30T01:25:45.458Z,18.37
2017-11-30T01:28:12.930Z,21.03
2017-11-30T01:30:40.414Z,19.67
2017-11-30T01:33:07.910Z,20.27
2017-11-30T01:35:35.404Z,18.17
2017-11-30T01:38:02.864Z,20.40
2017-11-30T01:40:30.390Z,21.40
2017-11-30T01:42:57.874Z,20.33
2017-11-30T01:45:25.342Z,19.47
2017-11-30T01:47:52.832Z,18.80
2017-11-30T01:50:20.304Z,21.30
2017-11-30T01:52:47.790Z,18.90
2017-11-30T01:55:16.177Z,20.20
2017-11-30T01:57:43.688Z,18.57
2017-11-30T02:00:11.174Z,18.60
2017-11-30T02:02:38.683Z,18.97
2017-11-30T02:05:06.124Z,20.40
2017-11-30T02:07:33.631Z,21.97
2017-11-30T02:10:01.116Z,20.77
2017-11-30T02:12:28.691Z,18.77
2017-11-30T02:14:56.190Z,19.08
2017-11-30T02:17:24.816Z,19.00
2017-11-30T02:19:52.560Z,18.77
2017-11-30T02:22:20.889Z,18.97
2017-11-30T02:24:48.453Z,17.53
2017-11-30T02:27:16.899Z,15.30
2017-11-30T02:29:44.410Z,13.50
2017-11-30T02:32:12.651Z,13.77
2017-11-30T02:34:40.127Z,11.73
2017-11-30T02:37:07.578Z,15.97
2017-11-30T02:39:35.057Z,14.00
2017-11-30T02:42:03.286Z,15.97
2017-11-30T02:44:30.785Z,17.07
2017-11-30T02:46:59.117Z,15.43
2017-11-30T02:49:26.615Z,15.27
2017-11-30T02:51:54.087Z,12.60
2017-11-30T02:54:21.551Z,15.50
2017-11-30T02:56:49.079Z,15.93
2017-11-30T02:59:17.457Z,9.27
2017-11-30T03:01:44.935Z,12.40
2017-11-30T03:04:12.434Z,17.50
2017-11-30T03:06:39.933Z,16.53
2017-11-30T03:09:07.415Z,16.57
2017-11-30T03:11:35.639Z,14.23
2017-11-30T03:14:03.144Z,16.07
2017-11-30T03:16:30.631Z,13.60
2017-11-30T03:18:58.095Z,14.30
2017-11-30T03:21:25.580Z,16.77
2017-11-30T03:23:53.148Z,14.80
2017-11-30T03:26:20.619Z,14.43
2017-11-30T03:28:48.091Z,14.10
2017-11-30T03:31:15.589Z,14.83
2017-11-30T03:33:43.054Z,15.23
2017-11-30T03:36:10.547Z,14.37
2017-11-30T03:38:38.006Z,15.93
2017-11-30T03:41:05.471Z,13.47
2017-11-30T03:43:32.959Z,13.87
2017-11-30T03:46:00.538Z,14.90
2017-11-30T03:48:28.008Z,13.67
2017-11-30T03:50:55.490Z,13.20
2017-11-30T03:53:22.971Z,16.00
2017-11-30T03:55:50.438Z,10.70
2017-11-30T03:58:19.439Z,13.85
2017-11-30T04:00:47.675Z,14.30
2017-11-30T04:03:15.160Z,13.47
2017-11-30T04:05:42.624Z,14.10
2017-11-30T04:08:10.193Z,14.37
2017-11-30T04:10:37.711Z,13.60
2017-11-30T04:13:05.191Z,13.87
2017-11-30T04:15:32.666Z,15.00
2017-11-30T04:18:00.144Z,13.73
2017-11-30T04:20:28.395Z,13.73
2017-11-30T04:22:55.851Z,11.77
2017-11-30T04:25:23.331Z,12.20
2017-11-30T04:27:51.779Z,13.77
2017-11-30T04:30:24.749Z,12.50
2017-11-30T04:32:52.210Z,11.23
2017-11-30T04:35:20.570Z,12.67
2017-11-30T04:37:48.231Z,11.63
2017-11-30T04:40:15.934Z,11.63
2017-11-30T04:42:43.647Z,11.33
2017-11-30T04:45:11.312Z,9.53
2017-11-30T04:47:39.005Z,11.23
2017-11-30T04:50:06.638Z,8.77
2017-11-30T04:52:34.233Z,8.30
2017-11-30T04:55:01.911Z,9.57
2017-11-30T04:57:29.498Z,9.07
2017-11-30T04:59:57.983Z,9.30
2017-11-30T05:02:26.529Z,10.40
2017-11-30T05:04:54.155Z,6.60
2017-11-30T05:07:21.970Z,8.40
2017-11-30T05:09:50.494Z,8.00
2017-11-30T05:12:18.207Z,6.17
2017-11-30T05:14:45.970Z,7.07
2017-11-30T05:17:13.790Z,6.63
2017-11-30T05:19:42.371Z,7.50
2017-11-30T05:22:10.455Z,6.77
2017-11-30T05:24:38.213Z,8.07
2017-11-30T05:27:06.727Z,7.63
2017-11-30T05:29:34.318Z,5.70
2017-11-30T05:32:02.482Z,8.03
2017-11-30T05:34:30.258Z,7.30
2017-11-30T05:36:58.087Z,7.53
2017-11-30T05:39:25.735Z,6.90
2017-11-30T05:41:53.478Z,6.60
2017-11-30T05:44:21.157Z,7.70
2017-11-30T05:46:48.935Z,6.67
2017-11-30T05:49:16.646Z,6.30
2017-11-30T05:51:44.368Z,7.20
2017-11-30T05:54:12.177Z,6.50
2017-11-30T05:56:40.056Z,5.10
2017-11-30T05:59:07.996Z,4.40
2017-11-30T06:01:35.628Z,5.90
2017-11-30T06:04:03.324Z,5.40
2017-11-30T06:06:30.822Z,7.20
2017-11-30T06:08:59.043Z,6.63
2017-11-30T06:11:26.522Z,6.10
2017-11-30T06:13:54.012Z,6.70
2017-11-30T06:16:22.252Z,6.37
2017-11-30T06:18:49.705Z,6.37
2017-11-30T06:21:17.199Z,5.60
2017-11-30T06:23:44.675Z,6.10
2017-11-30T06:26:12.147Z,5.97
2017-11-30T06:28:39.638Z,7.10
2017-11-30T06:31:07.429Z,5.73
2017-11-30T06:33:34.889Z,5.80
2017-11-30T06:36:02.451Z,5.80
2017-11-30T06:38:29.926Z,6.27
2017-11-30T06:40:57.416Z,5.70
2017-11-30T06:43:24.913Z,5.60
2017-11-30T06:45:52.362Z,5.70
2017-11-30T06:48:19.830Z,5.67
2017-11-30T06:50:47.602Z,5.00
2017-11-30T06:53:15.332Z,6.20
2017-11-30T06:55:42.959Z,6.00
2017-11-30T06:58:11.427Z,6.13
2017-11-30T07:00:39.190Z,5.30
2017-11-30T07:03:08.119Z,6.50
2017-11-30T07:05:35.866Z,5.37
2017-11-30T07:08:03.494Z,5.77
2017-11-30T07:10:31.220Z,5.63
2017-11-30T07:12:59.095Z,5.43
2017-11-30T07:15:26.943Z,5.20
2017-11-30T07:17:54.745Z,5.93
2017-11-30T07:20:23.024Z,5.15
2017-11-30T07:22:50.738Z,6.30
2017-11-30T07:25:19.158Z,4.77
2017-11-30T07:27:47.035Z,5.00
2017-11-30T07:30:14.825Z,5.53
2017-11-30T07:32:42.558Z,5.47
2017-11-30T07:35:10.347Z,7.00
2017-11-30T07:37:38.110Z,6.43
2017-11-30T07:40:05.880Z,5.53
2017-11-30T07:42:33.658Z,5.30
2017-11-30T07:45:01.438Z,5.47
2017-11-30T07:47:29.842Z,5.17
2017-11-30T07:49:57.469Z,5.73
2017-11-30T07:52:25.214Z,6.13
2017-11-30T07:54:53.973Z,5.30
2017-11-30T07:57:21.814Z,7.80
2017-11-30T07:59:49.618Z,6.30
2017-11-30T08:02:17.383Z,6.93
2017-11-30T08:04:45.110Z,6.57
2017-11-30T08:07:12.858Z,7.00
2017-11-30T08:09:41.885Z,7.13
2017-11-30T08:12:09.660Z,6.80
2017-11-30T08:14:37.335Z,7.67
2017-11-30T08:17:04.950Z,6.47
2017-11-30T08:19:32.580Z,6.30
2017-11-30T08:22:00.334Z,6.80
2017-11-30T08:24:28.078Z,7.00
2017-11-30T08:26:55.822Z,6.13
2017-11-30T08:29:24.463Z,6.50
2017-11-30T08:31:52.222Z,6.23
2017-11-30T08:34:20.088Z,6.90
2017-11-30T08:36:47.939Z,7.37
2017-11-30T08:39:15.662Z,6.20
2017-11-30T08:41:43.431Z,7.73
2017-11-30T08:44:11.315Z,7.27
2017-11-30T08:46:38.929Z,8.00
2017-11-30T08:49:06.713Z,7.10
2017-11-30T08:51:34.432Z,7.90
2017-11-30T08:54:02.196Z,8.23
2017-11-30T08:56:30.028Z,7.97
2017-11-30T08:58:57.934Z,6.20
2017-11-30T09:01:25.641Z,5.53
2017-11-30T09:03:54.152Z,5.97
2017-11-30T09:06:21.816Z,4.77
2017-11-30T09:08:51.261Z,6.90
2017-11-30T09:11:19.013Z,5.70
2017-11-30T09:13:47.598Z,6.27
2017-11-30T09:16:15.507Z,3.47
2017-11-30T09:18:43.419Z,6.23
2017-11-30T09:21:11.127Z,3.80
2017-11-30T09:23:38.767Z,3.33
2017-11-30T09:26:06.602Z,6.63
2017-11-30T09:28:34.280Z,7.57
2017-11-30T09:31:02.078Z,8.87
2017-11-30T09:33:29.867Z,9.03
2017-11-30T09:35:58.699Z,7.50
2017-11-30T09:38:26.383Z,9.47
2017-11-30T09:40:54.019Z,2.93
2017-11-30T09:43:21.810Z,3.20
2017-11-30T09:45:49.572Z,3.83
2017-11-30T09:48:17.439Z,3.87
2017-11-30T09:50:45.158Z,3.77
2017-11-30T09:53:12.808Z,2.43
2017-11-30T09:55:41.227Z,3.97
2017-11-30T09:58:08.966Z,4.10
2017-11-30T10:00:36.665Z,3.70
2017-11-30T10:03:04.446Z,3.63
2017-11-30T10:05:32.166Z,4.00
2017-11-30T10:07:59.888Z,4.73
2017-11-30T10:10:27.682Z,4.40
2017-11-30T10:12:55.369Z,4.20
2017-11-30T10:15:23.126Z,3.63
2017-11-30T10:17:50.797Z,4.57
2017-11-30T10:20:18.474Z,2.77
2017-11-30T10:22:46.226Z,3.90
2017-11-30T10:25:15.074Z,3.27
2017-11-30T10:27:43.537Z,4.23
2017-11-30T10:30:11.428Z,3.60
2017-11-30T10:32:39.365Z,2.67
2017-11-30T10:35:07.130Z,2.87
2017-11-30T10:37:34.880Z,3.13
2017-11-30T10:40:02.599Z,2.87
2017-11-30T10:42:30.304Z,3.57
2017-11-30T10:44:58.113Z,2.87
2017-11-30T10:47:26.627Z,3.62
2017-11-30T10:49:54.217Z,4.00
2017-11-30T10:52:21.934Z,2.80
2017-11-30T10:54:50.444Z,3.70
2017-11-30T10:57:18.072Z,3.30
2017-11-30T10:59:46.569Z,2.87
2017-11-30T11:02:14.232Z,3.57
2017-11-30T11:04:41.951Z,3.53
2017-11-30T11:07:09.704Z,3.70
2017-11-30T11:09:37.433Z,4.97
2017-11-30T11:12:05.162Z,3.40
2017-11-30T11:14:32.847Z,4.23
2017-11-30T11:17:00.531Z,4.33
2017-11-30T11:19:29.226Z,5.33
2017-11-30T11:21:56.844Z,3.77
2017-11-30T11:24:25.266Z,3.93
2017-11-30T11:26:52.877Z,2.40
2017-11-30T11:29:21.412Z,3.20
2017-11-30T11:31:49.136Z,4.30
2017-11-30T11:34:17.726Z,3.40
2017-11-30T11:36:45.590Z,3.20
2017-11-30T11:39:13.328Z,3.50
2017-11-30T11:41:41.098Z,2.77
2017-11-30T11:44:08.847Z,3.92
2017-11-30T11:46:37.371Z,1.93
2017-11-30T11:49:05.773Z,3.00
2017-11-30T11:51:33.377Z,3.37
2017-11-30T11:54:01.029Z,2.87
2017-11-30T11:56:29.106Z,3.80
2017-11-30T11:58:56.732Z,3.50
2017-11-30T12:01:24.521Z,3.43
2017-11-30T12:03:52.255Z,2.00
2017-11-30T12:06:19.940Z,3.77
2017-11-30T12:08:48.522Z,3.20
2017-11-30T12:11:16.281Z,4.03
2017-11-30T12:13:44.067Z,1.70
2017-11-30T12:16:11.788Z,3.20
2017-11-30T12:18:40.822Z,2.77
2017-11-30T12:21:08.417Z,4.03
2017-11-30T12:23:36.057Z,2.10
2017-11-30T12:26:03.789Z,2.00
2017-11-30T12:28:31.595Z,2.30
2017-11-30T12:30:59.693Z,4.40
2017-11-30T12:33:28.276Z,1.27
2017-11-30T12:35:56.086Z,2.90
2017-11-30T12:38:23.794Z,2.63
2017-11-30T12:40:51.959Z,2.80
2017-11-30T12:43:20.208Z,2.83
2017-11-30T12:45:47.874Z,3.27
2017-11-30T12:48:15.574Z,2.87
2017-11-30T12:50:43.405Z,3.53
2017-11-30T12:53:11.035Z,2.70
2017-11-30T12:55:38.683Z,3.40
2017-11-30T12:58:06.414Z,2.53
2017-11-30T13:00:34.251Z,3.83
2017-11-30T13:03:01.881Z,3.07
2017-11-30T13:05:31.281Z,3.60
2017-11-30T13:08:00.670Z,3.43
2017-11-30T13:10:28.333Z,3.10
2017-11-30T13:12:55.929Z,2.77
2017-11-30T13:15:23.563Z,3.67
2017-11-30T13:17:52.063Z,2.67
2017-11-30T13:20:19.816Z,3.80
2017-11-30T13:22:47.565Z,3.50
2017-11-30T13:25:15.237Z,3.30
2017-11-30T13:27:43.737Z,5.73
2017-11-30T13:30:12.220Z,4.63
2017-11-30T13:32:40.662Z,3.97
2017-11-30T13:35:08.434Z,4.33
2017-11-30T13:37:36.307Z,3.07
2017-11-30T13:40:03.969Z,2.43
2017-11-30T13:42:31.719Z,2.20
2017-11-30T13:44:59.388Z,2.77
2017-11-30T13:47:27.082Z,5.70
2017-11-30T13:49:54.727Z,3.90
2017-11-30T13:52:22.332Z,6.13
2017-11-30T13:54:50.206Z,5.70
2017-11-30T13:57:17.905Z,2.77
2017-11-30T13:59:45.571Z,3.87
2017-11-30T14:02:13.369Z,5.00
2017-11-30T14:04:41.129Z,3.87
2017-11-30T14:07:09.792Z,3.10
2017-11-30T14:09:37.504Z,5.10
2017-11-30T14:12:05.155Z,5.53
2017-11-30T14:14:32.822Z,4.90
2017-11-30T14:17:00.542Z,5.03
2017-11-30T14:19:28.214Z,3.73
2017-11-30T14:21:55.909Z,2.87
2017-11-30T14:24:23.595Z,2.87
2017-11-30T14:26:51.252Z,3.20
2017-11-30T14:29:18.874Z,1.33
2017-11-30T14:31:47.271Z,1.40
2017-11-30T14:34:14.881Z,2.00
2017-11-30T14:36:42.607Z,1.90
2017-11-30T14:39:10.277Z,2.30
2017-11-30T14:41:38.072Z,2.00
2017-11-30T14:44:05.669Z,2.30
2017-11-30T14:46:33.203Z,2.30
2017-11-30T14:49:00.945Z,2.20
2017-11-30T14:51:28.689Z,1.57
2017-11-30T14:53:56.389Z,1.80
2017-11-30T14:56:24.062Z,2.10
2017-11-30T14:58:52.638Z,3.37
2017-11-30T15:01:20.398Z,2.80
2017-11-30T15:03:48.148Z,2.30
2017-11-30T15:06:15.858Z,3.20
2017-11-30T15:08:43.481Z,2.87
2017-11-30T15:11:11.274Z,2.90
2017-11-30T15:13:39.021Z,3.20
2017-11-30T15:16:07.019Z,2.90
2017-11-30T15:18:34.711Z,2.87
2017-11-30T15:21:03.220Z,3.65
2017-11-30T15:23:30.949Z,4.20
2017-11-30T15:25:58.782Z,3.87
2017-11-30T15:28:26.415Z,3.20
2017-11-30T15:30:54.002Z,2.97
2017-11-30T15:33:21.659Z,3.00
2017-11-30T15:35:49.425Z,2.77
2017-11-30T15:38:17.137Z,2.47
2017-11-30T15:40:44.839Z,2.23
2017-11-30T15:43:12.588Z,2.03
2017-11-30T15:45:40.226Z,2.00
2017-11-30T15:48:07.888Z,1.90
2017-11-30T15:50:35.760Z,2.23
2017-11-30T15:53:03.641Z,2.33
2017-11-30T15:55:31.481Z,2.60
2017-11-30T15:57:59.910Z,2.53
2017-11-30T16:00:27.567Z,2.47
2017-11-30T16:02:55.272Z,2.70
2017-11-30T16:05:23.035Z,2.83
2017-11-30T16:07:50.695Z,2.80
2017-11-30T16:10:18.293Z,3.33
2017-11-30T16:12:46.126Z,3.80
2017-11-30T16:15:13.778Z,3.77
2017-11-30T16:17:41.530Z,3.35
2017-11-30T16:20:09.367Z,3.03
2017-11-30T16:22:37.221Z,3.00
2017-11-30T16:25:05.106Z,2.70
2017-11-30T16:27:32.975Z,3.13
2017-11-30T16:30:00.643Z,4.10
2017-11-30T16:32:28.771Z,4.87
2017-11-30T16:34:56.479Z,5.70
2017-11-30T16:37:24.260Z,4.63
2017-11-30T16:39:52.002Z,4.20
2017-11-30T16:42:20.464Z,3.40
2017-11-30T16:44:48.584Z,4.50
2017-11-30T16:47:16.196Z,4.40
2017-11-30T16:49:44.028Z,4.17
2017-11-30T16:52:11.803Z,3.70
2017-11-30T16:54:39.431Z,4.30
2017-11-30T16:57:07.096Z,5.60
2017-11-30T16:59:34.731Z,10.10
2017-11-30T17:02:02.475Z,18.53
2017-11-30T17:04:31.008Z,75.90
2017-11-30T17:06:58.731Z,44.30
2017-11-30T17:09:26.407Z,7.43
2017-11-30T17:11:53.972Z,5.57
2017-11-30T17:14:21.792Z,5.53
2017-11-30T17:16:49.465Z,5.53
2017-11-30T17:19:17.149Z,5.20
2017-11-30T17:21:44.861Z,6.03
2017-11-30T17:24:12.697Z,11.97
2017-11-30T17:26:40.645Z,21.13
2017-11-30T17:29:08.615Z,15.70
2017-11-30T17:31:36.382Z,17.20
2017-11-30T17:34:04.871Z,8.17
2017-11-30T17:36:32.440Z,6.33
2017-11-30T17:39:00.149Z,6.30
2017-11-30T17:41:27.894Z,6.00
2017-11-30T17:43:55.586Z,7.30
2017-11-30T17:46:23.558Z,6.73
2017-11-30T17:48:54.027Z,6.37
2017-11-30T17:51:21.899Z,7.12
2017-11-30T17:53:49.558Z,6.78
2017-11-30T17:56:17.358Z,7.67
2017-11-30T17:58:45.021Z,7.80
2017-11-30T18:01:12.772Z,8.83
2017-11-30T18:03:40.375Z,7.63
2017-11-30T18:06:08.874Z,8.63
2017-11-30T18:08:37.603Z,9.98
2017-11-30T18:11:05.380Z,7.77
2017-11-30T18:13:33.054Z,9.37
2017-11-30T18:16:00.693Z,9.53
2017-11-30T18:18:28.358Z,9.63
2017-11-30T18:20:55.987Z,10.23
2017-11-30T18:23:23.743Z,10.07
2017-11-30T18:25:52.213Z,8.20
2017-11-30T18:28:20.751Z,8.90
2017-11-30T18:30:48.411Z,12.13
2017-11-30T18:33:16.413Z,11.27
2017-11-30T18:35:44.016Z,10.63
2017-11-30T18:38:11.978Z,10.70
2017-11-30T18:40:40.399Z,10.40
2017-11-30T18:43:08.046Z,8.43
2017-11-30T18:45:35.798Z,14.77
2017-11-30T18:48:03.595Z,11.40
2017-11-30T18:50:31.224Z,15.23
2017-11-30T18:52:58.971Z,16.07
2017-11-30T18:55:27.558Z,15.70
2017-11-30T18:57:56.209Z,15.07
2017-11-30T19:00:24.000Z,16.10
2017-11-30T19:02:52.455Z,11.70
2017-11-30T19:05:20.158Z,13.20
2017-11-30T19:07:48.710Z,13.10
2017-11-30T19:10:16.384Z,12.03
2017-11-30T19:12:44.056Z,12.40
2017-11-30T19:15:11.711Z,11.20
2017-11-30T19:17:39.347Z,11.53
2017-11-30T19:20:08.105Z,10.53
2017-11-30T19:22:35.767Z,10.50
2017-11-30T19:25:03.587Z,11.80
2017-11-30T19:27:31.204Z,11.80
2017-11-30T19:29:58.879Z,11.90
2017-11-30T19:32:26.806Z,10.77
2017-11-30T19:34:54.512Z,12.10
2017-11-30T19:37:22.358Z,13.03
2017-11-30T19:39:50.295Z,12.00
2017-11-30T19:42:19.213Z,11.80
2017-11-30T19:44:46.862Z,12.30
2017-11-30T19:47:15.298Z,12.30
2017-11-30T19:49:42.964Z,11.30
2017-11-30T19:52:10.756Z,11.40
2017-11-30T19:54:38.610Z,11.50
2017-11-30T19:57:06.271Z,13.00
2017-11-30T19:59:33.961Z,12.00
2017-11-30T20:02:01.784Z,11.90
2017-11-30T20:04:29.814Z,11.77
2017-11-30T20:06:57.620Z,11.53
2017-11-30T20:09:25.853Z,11.40
2017-11-30T20:11:53.990Z,14.05
2017-11-30T20:14:22.444Z,12.93
2017-11-30T20:16:50.367Z,14.17
2017-11-30T20:19:18.484Z,13.03
2017-11-30T20:21:46.447Z,15.20
2017-11-30T20:24:14.306Z,13.07
2017-11-30T20:26:42.223Z,16.80
2017-11-30T20:29:10.019Z,18.20
2017-11-30T20:31:37.802Z,18.37
2017-11-30T20:34:05.481Z,19.20
2017-11-30T20:36:33.102Z,19.20
2017-11-30T20:39:01.723Z,18.60
2017-11-30T20:41:29.538Z,18.98
2017-11-30T20:43:58.047Z,19.67
2017-11-30T20:46:25.985Z,19.77
2017-11-30T20:48:54.381Z,20.90
2017-11-30T20:51:21.983Z,18.50
2017-11-30T20:53:49.741Z,21.60
2017-11-30T20:56:17.488Z,20.03
2017-11-30T20:58:45.213Z,21.20
2017-11-30T21:01:13.025Z,19.90
2017-11-30T21:03:40.835Z,18.20
2017-11-30T21:06:11.292Z,19.10
2017-11-30T21:08:40.104Z,21.00
2017-11-30T21:11:08.648Z,21.73
2017-11-30T21:13:36.519Z,20.70
2017-11-30T21:16:04.864Z,24.90
2017-11-30T21:18:32.741Z,23.20
2017-11-30T21:21:00.555Z,21.73
2017-11-30T21:23:29.111Z,22.20
2017-11-30T21:25:57.841Z,24.63
2017-11-30T21:28:25.715Z,21.57
2017-11-30T21:30:53.544Z,23.53
2017-11-30T21:33:22.164Z,25.30
2017-11-30T21:35:49.903Z,22.33
2017-11-30T21:38:18.424Z,21.30
2017-11-30T21:40:46.091Z,20.07
2017-11-30T21:43:13.696Z,23.07
2017-11-30T21:45:41.992Z,22.23
2017-11-30T21:48:10.166Z,24.03
2017-11-30T21:50:37.652Z,21.07
2017-11-30T21:53:05.117Z,24.63
2017-11-30T21:55:32.588Z,25.30
2017-11-30T21:58:00.060Z,22.30
2017-11-30T22:00:27.526Z,22.57
2017-11-30T22:02:55.005Z,22.60
2017-11-30T22:05:23.233Z,22.13
2017-11-30T22:07:50.710Z,24.80
2017-11-30T22:10:18.161Z,24.70
2017-11-30T22:12:45.613Z,20.20
2017-11-30T22:15:13.127Z,20.87
2017-11-30T22:17:40.585Z,23.23
2017-11-30T22:20:08.074Z,22.30
2017-11-30T22:22:35.537Z,20.97
2017-11-30T22:25:03.025Z,20.60
2017-11-30T22:27:30.484Z,21.83
2017-11-30T22:29:57.948Z,22.90
2017-11-30T22:32:25.451Z,20.40
2017-11-30T22:34:52.904Z,22.90
2017-11-30T22:37:20.459Z,23.40
2017-11-30T22:39:47.953Z,21.10
2017-11-30T22:42:15.425Z,21.20
2017-11-30T22:44:42.893Z,23.50
2017-11-30T22:47:10.949Z,22.67
2017-11-30T22:49:38.398Z,22.90
2017-11-30T22:52:05.890Z,23.73
2017-11-30T22:54:33.338Z,23.17
2017-11-30T22:57:00.829Z,22.07
2017-11-30T22:59:28.285Z,24.93
2017-11-30T23:01:56.537Z,23.07
2017-11-30T23:04:24.034Z,22.70
2017-11-30T23:06:51.506Z,23.53
2017-11-30T23:09:19.065Z,23.70
2017-11-30T23:11:46.541Z,21.43
2017-11-30T23:14:14.024Z,22.90
2017-11-30T23:16:41.485Z,24.60
2017-11-30T23:19:08.933Z,23.17
2017-11-30T23:21:36.465Z,20.97
2017-11-30T23:24:03.933Z,19.97
2017-11-30T23:26:31.406Z,19.37
2017-11-30T23:28:58.870Z,21.67
2017-11-30T23:31:26.351Z,22.52
2017-11-30T23:33:53.805Z,21.83
2017-11-30T23:36:21.283Z,22.67
2017-11-30T23:38:48.789Z,24.00
2017-11-30T23:41:16.304Z,24.37
2017-11-30T23:43:43.805Z,22.47
2017-11-30T23:46:12.578Z,23.87
2017-11-30T23:48:40.046Z,18.57
2017-11-30T23:51:07.536Z,23.10
2017-11-30T23:53:34.989Z,21.23
2017-11-30T23:56:02.457Z,22.30
2017-11-30T23:58:29.943Z,24.10
